Time;durP1;ratioP1;P1;durP2;ratioP2;P2;SDS_P1;SDS_P2;PMS_P1;PMS_P2;Temp;Humidity;BMP_temperature;BMP_pressure;BME280_temperature;BME280_humidity;BME280_pressure;Samples;Min_cycle;Max_cycle;Signal;HPM_P1;HPM_P2
2023/05/14 00:00:47;;;;;;;16.70;8.63;;;10.30;99.90;;;;;;5034405;28;20470;-73
2023/05/14 00:03:14;;;;;;;11.07;9.53;;;10.30;99.90;;;;;;5040547;28;20462;-72
2023/05/14 00:05:40;;;;;;;14.93;9.80;;;10.20;99.90;;;;;;5048487;28;20507;-72
2023/05/14 00:08:08;;;;;;;13.13;9.50;;;10.20;99.90;;;;;;5043030;28;20437;-73
2023/05/14 00:10:35;;;;;;;10.33;9.20;;;10.20;99.90;;;;;;5050245;28;21055;-72
2023/05/14 00:13:02;;;;;;;10.73;9.63;;;10.20;99.90;;;;;;5040854;28;20450;-72
2023/05/14 00:15:28;;;;;;;11.10;9.50;;;10.20;99.90;;;;;;5040176;28;20945;-72
2023/05/14 00:17:55;;;;;;;11.53;9.70;;;10.20;99.90;;;;;;5042417;28;20482;-72
2023/05/14 00:20:21;;;;;;;11.50;9.50;;;10.20;99.90;;;;;;5045910;28;21166;-72
2023/05/14 00:22:48;;;;;;;10.97;9.03;;;10.20;99.90;;;;;;5038772;28;20463;-73
2023/05/14 00:25:16;;;;;;;15.00;10.00;;;10.20;99.90;;;;;;5046003;28;20461;-72
2023/05/14 00:27:43;;;;;;;14.97;10.57;;;10.20;99.90;;;;;;5043255;28;20495;-72
2023/05/14 00:30:10;;;;;;;10.60;9.50;;;10.10;99.90;;;;;;5039536;28;20949;-72
2023/05/14 00:32:37;;;;;;;11.80;9.40;;;10.10;99.90;;;;;;5037838;28;20462;-72
2023/05/14 00:35:04;;;;;;;17.77;10.60;;;10.10;99.90;;;;;;5038322;28;20500;-73
2023/05/14 00:37:30;;;;;;;12.73;10.13;;;10.10;99.90;;;;;;5036701;28;20489;-72
2023/05/14 00:39:57;;;;;;;12.70;10.60;;;10.10;99.90;;;;;;5045948;28;20500;-73
2023/05/14 00:42:25;;;;;;;15.97;11.50;;;10.00;99.90;;;;;;5043307;28;20462;-72
2023/05/14 00:44:52;;;;;;;11.87;10.67;;;10.00;99.90;;;;;;5038065;28;20843;-72
2023/05/14 00:47:19;;;;;;;13.37;12.00;;;10.00;99.90;;;;;;5034628;28;20446;-72
2023/05/14 00:49:46;;;;;;;16.97;12.57;;;10.00;99.90;;;;;;5036963;28;20454;-72
2023/05/14 00:52:13;;;;;;;16.20;13.03;;;10.00;99.90;;;;;;5034819;28;20520;-72
2023/05/14 00:54:39;;;;;;;17.40;12.50;;;10.00;99.90;;;;;;5038567;28;20462;-72
2023/05/14 00:57:07;;;;;;;18.40;13.37;;;10.00;99.90;;;;;;5040294;28;20543;-72
2023/05/14 00:59:35;;;;;;;19.70;13.70;;;10.00;99.90;;;;;;5041331;28;20463;-72
2023/05/14 01:02:01;;;;;;;18.73;12.47;;;10.00;99.90;;;;;;5034776;28;20486;-72
2023/05/14 01:04:28;;;;;;;16.10;13.60;;;10.00;99.90;;;;;;5041688;28;20985;-73
2023/05/14 01:07:16;;;;;;;15.97;12.53;;;10.00;99.90;;;;;;5039465;28;20457;-72
2023/05/14 01:09:49;;;;;;;18.70;14.10;;;9.90;99.90;;;;;;5045053;28;20510;-72
2023/05/14 01:12:21;;;;;;;17.27;15.10;;;9.90;99.90;;;;;;5041248;28;20531;-72
2023/05/14 01:14:56;;;;;;;17.73;14.63;;;10.00;99.90;;;;;;5044060;28;20457;-72
2023/05/14 01:17:27;;;;;;;16.37;14.10;;;10.00;99.90;;;;;;5035105;28;21000;-72
2023/05/14 01:19:56;;;;;;;21.57;14.17;;;10.00;99.90;;;;;;5035329;28;20454;-72
2023/05/14 01:22:24;;;;;;;16.20;14.20;;;10.00;99.90;;;;;;5033816;28;20456;-72
2023/05/14 01:24:51;;;;;;;18.03;13.83;;;10.00;99.90;;;;;;5040420;28;20461;-72
2023/05/14 01:27:25;;;;;;;25.93;14.50;;;9.90;99.90;;;;;;5039046;28;20450;-72
2023/05/14 01:29:57;;;;;;;16.70;13.20;;;9.90;99.90;;;;;;5046809;28;20449;-72
2023/05/14 01:32:25;;;;;;;16.50;14.20;;;9.90;99.90;;;;;;5030954;28;20481;-72
2023/05/14 01:34:53;;;;;;;16.80;14.13;;;9.90;99.90;;;;;;5037862;28;20527;-72
2023/05/14 01:37:20;;;;;;;17.10;14.03;;;9.90;99.90;;;;;;5033422;28;20490;-72
2023/05/14 01:39:50;;;;;;;20.47;13.83;;;9.90;99.90;;;;;;5040892;28;20523;-72
2023/05/14 01:42:17;;;;;;;17.87;14.03;;;9.90;99.90;;;;;;5049125;28;20523;-72
2023/05/14 01:44:43;;;;;;;15.13;13.53;;;9.90;99.90;;;;;;5042789;28;20871;-73
2023/05/14 01:47:10;;;;;;;17.17;14.53;;;9.80;99.90;;;;;;5030482;28;20439;-72
2023/05/14 01:49:37;;;;;;;18.80;13.23;;;9.80;99.90;;;;;;5037176;28;20567;-72
2023/05/14 01:52:03;;;;;;;20.80;13.83;;;9.80;99.90;;;;;;5038348;28;20483;-72
2023/05/14 01:54:30;;;;;;;16.40;13.77;;;9.80;99.90;;;;;;5036191;28;20461;-72
2023/05/14 01:56:58;;;;;;;20.27;14.53;;;9.70;99.90;;;;;;5032531;28;21159;-73
2023/05/14 01:59:25;;;;;;;17.00;13.70;;;9.70;99.90;;;;;;5049198;28;20461;-72
2023/05/14 02:01:51;;;;;;;14.70;13.10;;;9.70;99.90;;;;;;5033285;28;20535;-72
2023/05/14 02:04:19;;;;;;;14.97;12.27;;;9.70;99.90;;;;;;5040954;28;20507;-72
2023/05/14 02:06:46;;;;;;;15.40;12.97;;;9.70;99.90;;;;;;5048400;28;20832;-73
2023/05/14 02:09:12;;;;;;;14.80;12.40;;;9.60;99.90;;;;;;5032360;28;20446;-72
2023/05/14 02:11:39;;;;;;;18.00;13.27;;;9.60;99.90;;;;;;5047014;28;20480;-72
2023/05/14 02:14:07;;;;;;;15.60;11.67;;;9.60;99.90;;;;;;5036784;28;20528;-72
2023/05/14 02:16:33;;;;;;;16.00;12.97;;;9.60;99.90;;;;;;5036292;28;20544;-72
2023/05/14 02:19:00;;;;;;;16.43;13.90;;;9.60;99.90;;;;;;5038139;28;20454;-72
2023/05/14 02:21:27;;;;;;;21.67;13.00;;;9.60;99.90;;;;;;5036354;28;20496;-72
2023/05/14 02:23:54;;;;;;;15.27;12.47;;;9.60;99.90;;;;;;5029838;28;20462;-72
2023/05/14 02:26:21;;;;;;;16.30;13.90;;;9.50;99.90;;;;;;5034121;28;20450;-72
2023/05/14 02:28:48;;;;;;;18.60;13.63;;;9.50;99.90;;;;;;5035452;28;20461;-72
2023/05/14 02:31:17;;;;;;;17.70;14.00;;;9.50;99.90;;;;;;5036446;28;20848;-72
2023/05/14 02:33:44;;;;;;;19.27;15.20;;;9.40;99.90;;;;;;5038129;28;20457;-72
2023/05/14 02:36:11;;;;;;;15.93;14.07;;;9.40;99.90;;;;;;5036949;28;20454;-72
2023/05/14 02:38:37;;;;;;;22.07;14.40;;;9.40;99.90;;;;;;5029851;28;20484;-72
2023/05/14 02:41:04;;;;;;;32.20;14.80;;;9.40;99.90;;;;;;5032549;28;20478;-73
2023/05/14 02:43:31;;;;;;;20.20;14.77;;;9.40;99.90;;;;;;5034360;28;20954;-72
2023/05/14 02:45:57;;;;;;;19.50;14.63;;;9.40;99.90;;;;;;5038748;28;20450;-72
2023/05/14 02:48:25;;;;;;;15.97;14.30;;;9.40;99.90;;;;;;5036102;28;20536;-73
2023/05/14 02:50:52;;;;;;;22.20;15.60;;;9.40;99.90;;;;;;5035964;28;20477;-72
2023/05/14 02:53:18;;;;;;;15.67;13.97;;;9.40;99.90;;;;;;5040146;28;20461;-72
2023/05/14 02:55:45;;;;;;;17.87;14.40;;;9.40;99.90;;;;;;5048103;28;21082;-72
2023/05/14 02:58:11;;;;;;;18.90;14.60;;;9.40;99.90;;;;;;5031460;28;20544;-73
2023/05/14 03:00:38;;;;;;;16.60;14.17;;;9.40;99.90;;;;;;5049031;28;20484;-73
2023/05/14 03:03:05;;;;;;;17.30;14.00;;;9.30;99.90;;;;;;5042683;28;20515;-73
2023/05/14 03:05:33;;;;;;;18.23;13.30;;;9.30;99.90;;;;;;5037143;28;20523;-72
2023/05/14 03:07:59;;;;;;;20.10;13.87;;;9.30;99.90;;;;;;5036758;28;20942;-73
2023/05/14 03:10:26;;;;;;;18.27;14.27;;;9.30;99.90;;;;;;5036507;28;20994;-72
2023/05/14 03:12:53;;;;;;;16.67;13.80;;;9.30;99.90;;;;;;5038119;28;20877;-73
2023/05/14 03:15:20;;;;;;;17.23;13.20;;;9.30;99.90;;;;;;5039093;28;20469;-73
2023/05/14 03:17:46;;;;;;;19.40;14.20;;;9.20;99.90;;;;;;5039446;28;20493;-72
2023/05/14 03:20:13;;;;;;;15.97;13.40;;;9.20;99.90;;;;;;5044914;28;20508;-73
2023/05/14 03:22:41;;;;;;;17.00;13.50;;;9.20;99.90;;;;;;5034809;28;20454;-72
2023/05/14 03:25:08;;;;;;;14.93;12.73;;;9.20;99.90;;;;;;5029868;28;20511;-73
2023/05/14 03:27:35;;;;;;;17.07;12.33;;;9.20;99.90;;;;;;5045272;28;20445;-72
2023/05/14 03:30:02;;;;;;;19.83;13.10;;;9.20;99.90;;;;;;5037084;28;20461;-72
2023/05/14 03:32:29;;;;;;;15.10;12.17;;;9.20;99.90;;;;;;5037400;28;20512;-72
2023/05/14 03:34:55;;;;;;;16.13;12.87;;;9.10;99.90;;;;;;5037435;28;20451;-73
2023/05/14 03:37:22;;;;;;;16.37;13.57;;;9.10;99.90;;;;;;5037188;28;20486;-72
2023/05/14 03:39:50;;;;;;;18.77;13.63;;;9.10;99.90;;;;;;5040742;28;20457;-73
2023/05/14 03:42:17;;;;;;;16.23;13.50;;;9.10;99.90;;;;;;5033849;28;20474;-72
2023/05/14 03:44:44;;;;;;;16.80;14.53;;;9.10;99.90;;;;;;5046691;28;20861;-73
2023/05/14 03:47:10;;;;;;;21.70;14.13;;;9.00;99.90;;;;;;5038530;28;20442;-72
2023/05/14 03:49:37;;;;;;;15.93;13.13;;;9.00;99.90;;;;;;5051836;28;20484;-73
2023/05/14 03:52:04;;;;;;;19.77;13.87;;;9.00;99.90;;;;;;5038796;28;20473;-72
2023/05/14 03:54:31;;;;;;;15.43;13.50;;;9.00;99.90;;;;;;5032962;28;20533;-72
2023/05/14 03:56:59;;;;;;;16.50;13.90;;;9.00;99.90;;;;;;5037647;28;20512;-72
2023/05/14 03:59:26;;;;;;;15.77;14.07;;;9.00;99.90;;;;;;5041031;28;20459;-72
2023/05/14 04:01:52;;;;;;;18.80;14.23;;;8.90;99.90;;;;;;5038112;28;20698;-73
2023/05/14 04:04:19;;;;;;;18.60;12.90;;;8.90;99.90;;;;;;5048493;28;20528;-72
2023/05/14 04:06:45;;;;;;;16.00;13.03;;;8.90;99.90;;;;;;5048912;28;20495;-73
2023/05/14 04:09:12;;;;;;;14.87;12.60;;;8.90;99.90;;;;;;5040520;28;20449;-72
2023/05/14 04:11:38;;;;;;;18.13;12.90;;;9.00;99.90;;;;;;5048483;28;20531;-73
2023/05/14 04:14:07;;;;;;;16.43;13.80;;;9.00;99.90;;;;;;5033826;28;20462;-72
2023/05/14 04:16:33;;;;;;;16.30;13.53;;;9.00;99.90;;;;;;5045859;28;20955;-73
2023/05/14 04:19:02;;;;;;;17.70;13.33;;;9.00;99.90;;;;;;5042102;28;20516;-73
2023/05/14 04:21:29;;;;;;;15.43;13.00;;;9.00;99.90;;;;;;5032819;28;20505;-73
2023/05/14 04:23:55;;;;;;;14.40;12.40;;;9.00;99.90;;;;;;5040325;28;20942;-73
2023/05/14 04:26:22;;;;;;;15.50;12.37;;;9.00;99.90;;;;;;5040369;28;20504;-72
2023/05/14 04:28:49;;;;;;;17.10;13.07;;;9.00;99.90;;;;;;5034037;28;20450;-73
2023/05/14 04:31:16;;;;;;;15.37;13.47;;;9.00;99.90;;;;;;5042607;28;20474;-72
2023/05/14 04:33:43;;;;;;;16.90;13.30;;;9.00;99.90;;;;;;5035979;28;20455;-73
2023/05/14 04:36:10;;;;;;;14.60;12.70;;;9.00;99.90;;;;;;5038150;28;20528;-72
2023/05/14 04:38:36;;;;;;;14.07;12.50;;;9.00;99.90;;;;;;5043037;28;21006;-71
2023/05/14 04:41:03;;;;;;;18.53;12.67;;;9.10;99.90;;;;;;5041865;28;20473;-71
2023/05/14 04:43:30;;;;;;;16.17;12.40;;;9.10;99.90;;;;;;5035574;28;20453;-70
2023/05/14 04:45:56;;;;;;;13.57;12.17;;;9.10;99.90;;;;;;5042142;28;20542;-71
2023/05/14 04:48:25;;;;;;;15.57;13.03;;;9.10;99.90;;;;;;5039752;28;20512;-71
2023/05/14 04:50:52;;;;;;;17.73;12.53;;;9.20;99.90;;;;;;5039563;28;20998;-70
2023/05/14 04:53:18;;;;;;;16.10;11.30;;;9.20;99.90;;;;;;5042226;28;20493;-70
2023/05/14 04:55:45;;;;;;;14.70;12.00;;;9.10;99.90;;;;;;5039642;28;20506;-71
2023/05/14 04:58:11;;;;;;;15.10;12.30;;;9.20;99.90;;;;;;5040020;28;20493;-71
2023/05/14 05:00:38;;;;;;;13.87;11.67;;;9.20;99.90;;;;;;5032233;28;20509;-71
2023/05/14 05:03:05;;;;;;;14.70;12.50;;;9.20;99.90;;;;;;5035153;28;20523;-71
2023/05/14 05:05:34;;;;;;;15.70;12.90;;;9.30;99.90;;;;;;5039559;28;20549;-70
2023/05/14 05:08:00;;;;;;;16.20;12.00;;;9.30;99.90;;;;;;5045033;28;21015;-70
2023/05/14 05:10:27;;;;;;;16.20;12.10;;;9.30;99.90;;;;;;5044248;28;20474;-70
2023/05/14 05:12:53;;;;;;;16.73;12.00;;;9.30;99.90;;;;;;5037441;28;20458;-71
2023/05/14 05:15:20;;;;;;;15.30;12.03;;;9.40;99.90;;;;;;5045917;28;20461;-71
2023/05/14 05:17:46;;;;;;;13.97;11.83;;;9.40;99.90;;;;;;5039078;28;20489;-71
2023/05/14 05:20:13;;;;;;;14.57;12.40;;;9.40;99.90;;;;;;5033492;28;20485;-71
2023/05/14 05:22:41;;;;;;;14.30;12.37;;;9.50;99.90;;;;;;5033062;28;20458;-69
2023/05/14 05:25:08;;;;;;;16.17;12.57;;;9.50;99.90;;;;;;5040230;28;20469;-70
2023/05/14 05:27:35;;;;;;;16.33;12.17;;;9.60;99.90;;;;;;5032385;28;20458;-70
2023/05/14 05:30:02;;;;;;;15.30;12.30;;;9.60;99.90;;;;;;5040707;28;20453;-70
2023/05/14 05:32:29;;;;;;;12.73;11.40;;;9.60;99.90;;;;;;5048786;28;20467;-70
2023/05/14 05:34:56;;;;;;;14.00;11.80;;;9.60;99.90;;;;;;5042107;28;20499;-68
2023/05/14 05:37:23;;;;;;;14.50;12.13;;;9.60;99.90;;;;;;5038445;28;20490;-68
2023/05/14 05:39:50;;;;;;;14.40;12.23;;;9.60;99.90;;;;;;5041513;28;20449;-68
2023/05/14 05:42:17;;;;;;;16.13;12.43;;;9.70;99.90;;;;;;5035331;28;20472;-68
2023/05/14 05:44:44;;;;;;;17.87;13.20;;;9.80;99.90;;;;;;5037009;28;20462;-68
2023/05/14 05:47:10;;;;;;;21.07;13.03;;;9.90;99.90;;;;;;5043848;28;20457;-68
2023/05/14 05:49:37;;;;;;;14.23;11.90;;;10.00;99.90;;;;;;5040872;28;20456;-69
2023/05/14 05:52:04;;;;;;;18.67;12.10;;;10.10;99.90;;;;;;5037391;28;20547;-68
2023/05/14 05:54:32;;;;;;;14.97;11.90;;;10.20;99.90;;;;;;5035545;28;20946;-68
2023/05/14 05:57:00;;;;;;;12.40;10.90;;;10.30;99.90;;;;;;5040824;28;20449;-68
2023/05/14 05:59:26;;;;;;;17.57;12.50;;;10.40;99.90;;;;;;5030691;28;20446;-68
2023/05/14 06:01:53;;;;;;;16.77;11.97;;;10.50;99.90;;;;;;5030288;28;20504;-68
2023/05/14 06:04:20;;;;;;;14.73;12.40;;;10.60;99.90;;;;;;5043605;28;20963;-68
2023/05/14 06:06:46;;;;;;;17.70;12.00;;;10.70;99.90;;;;;;5042745;28;20828;-68
2023/05/14 06:09:13;;;;;;;19.60;12.67;;;10.80;99.90;;;;;;5036373;28;20517;-68
2023/05/14 06:11:39;;;;;;;12.40;11.20;;;11.00;99.90;;;;;;5047348;28;20936;-69
2023/05/14 06:14:07;;;;;;;13.40;10.93;;;11.00;99.90;;;;;;5045453;28;20449;-68
2023/05/14 06:16:34;;;;;;;12.70;11.40;;;11.00;99.90;;;;;;5031510;28;20488;-69
2023/05/14 06:19:01;;;;;;;23.03;11.83;;;11.10;99.90;;;;;;5035308;28;20547;-69
2023/05/14 06:21:27;;;;;;;16.90;11.17;;;11.10;99.90;;;;;;5030289;28;20557;-68
2023/05/14 06:23:54;;;;;;;13.17;11.53;;;11.10;99.90;;;;;;5030410;28;20450;-68
2023/05/14 06:26:21;;;;;;;15.80;12.50;;;11.20;99.90;;;;;;5032775;28;20449;-69
2023/05/14 06:28:47;;;;;;;13.03;11.67;;;11.40;99.90;;;;;;5030878;28;20450;-69
2023/05/14 06:31:15;;;;;;;12.50;11.13;;;11.60;99.90;;;;;;5030451;28;20494;-69
2023/05/14 06:33:42;;;;;;;15.43;11.40;;;11.90;99.90;;;;;;5030360;28;20469;-69
2023/05/14 06:36:09;;;;;;;17.77;12.23;;;12.20;99.90;;;;;;5031601;28;20461;-69
2023/05/14 06:38:36;;;;;;;19.33;11.50;;;12.40;99.90;;;;;;5036563;28;20543;-69
2023/05/14 06:41:02;;;;;;;11.23;10.13;;;12.70;99.90;;;;;;5034951;28;20547;-69
2023/05/14 06:43:29;;;;;;;11.60;10.23;;;13.10;99.90;;;;;;5035462;28;20457;-69
2023/05/14 06:45:56;;;;;;;10.33;9.33;;;13.50;99.90;;;;;;5039034;28;21007;-69
2023/05/14 06:48:26;;;;;;;10.43;9.37;;;13.90;99.90;;;;;;5029756;28;20441;-69
2023/05/14 06:50:53;;;;;;;10.80;9.70;;;14.10;99.90;;;;;;5030179;28;20500;-69
2023/05/14 06:53:19;;;;;;;14.93;9.90;;;14.30;99.90;;;;;;5032748;28;20471;-69
2023/05/14 06:55:47;;;;;;;9.83;8.83;;;14.30;99.90;;;;;;5034547;28;20462;-69
2023/05/14 06:58:14;;;;;;;17.67;10.00;;;14.40;99.90;;;;;;5029371;28;20546;-70
2023/05/14 07:00:40;;;;;;;10.30;8.77;;;14.40;99.90;;;;;;5030370;28;20984;-70
2023/05/14 07:03:07;;;;;;;17.53;9.10;;;14.60;99.90;;;;;;5039864;28;20477;-70
2023/05/14 07:05:35;;;;;;;13.37;9.10;;;14.70;99.90;;;;;;5044575;28;20492;-69
2023/05/14 07:08:02;;;;;;;10.77;8.83;;;14.90;99.90;;;;;;5044064;28;20511;-70
2023/05/14 07:10:29;;;;;;;9.93;8.67;;;15.20;99.90;;;;;;5033537;28;21187;-71
2023/05/14 07:12:56;;;;;;;10.07;9.07;;;15.40;99.90;;;;;;5043236;28;20471;-70
2023/05/14 07:15:22;;;;;;;8.37;7.57;;;15.60;99.90;;;;;;5033969;28;20511;-69
2023/05/14 07:17:49;;;;;;;10.50;9.00;;;15.80;99.90;;;;;;5039816;28;20534;-71
2023/05/14 07:20:16;;;;;;;11.10;8.57;;;15.90;99.90;;;;;;5042549;28;20859;-71
2023/05/14 07:22:44;;;;;;;8.80;7.93;;;16.10;99.90;;;;;;5033361;28;20446;-70
2023/05/14 07:25:10;;;;;;;11.13;8.43;;;16.20;99.90;;;;;;5038641;28;20438;-70
2023/05/14 07:27:37;;;;;;;10.70;8.30;;;16.30;99.90;;;;;;5040909;28;20521;-70
2023/05/14 07:30:04;;;;;;;10.83;7.87;;;16.60;99.90;;;;;;5041703;28;20885;-71
2023/05/14 07:32:30;;;;;;;8.87;8.07;;;16.70;99.90;;;;;;5032881;28;20503;-70
2023/05/14 07:34:57;;;;;;;8.43;7.50;;;16.90;99.90;;;;;;5032941;28;20837;-70
2023/05/14 07:37:24;;;;;;;8.67;7.10;;;17.10;99.90;;;;;;5037054;28;20504;-70
2023/05/14 07:39:52;;;;;;;8.13;7.33;;;17.30;99.90;;;;;;5033296;28;20546;-69
2023/05/14 07:42:19;;;;;;;10.37;7.47;;;17.50;99.90;;;;;;5040165;28;20466;-70
2023/05/14 07:44:46;;;;;;;8.80;8.00;;;17.60;99.90;;;;;;5033094;28;20428;-70
2023/05/14 07:47:12;;;;;;;9.97;8.10;;;17.80;99.90;;;;;;5042490;28;20462;-70
2023/05/14 07:49:39;;;;;;;8.77;7.90;;;18.00;99.90;;;;;;5032548;28;20474;-70
2023/05/14 07:52:06;;;;;;;9.47;8.47;;;18.00;99.90;;;;;;5041835;28;20448;-70
2023/05/14 07:54:32;;;;;;;10.90;7.97;;;18.00;99.90;;;;;;5034549;28;20897;-70
2023/05/14 07:57:00;;;;;;;8.70;7.80;;;17.90;99.90;;;;;;5037830;28;20428;-71
2023/05/14 07:59:27;;;;;;;9.00;8.20;;;17.90;99.90;;;;;;5032768;28;20810;-70
2023/05/14 08:01:53;;;;;;;8.00;7.20;;;18.00;99.90;;;;;;5032414;28;20448;-71
2023/05/14 08:04:22;;;;;;;7.60;6.80;;;18.20;99.90;;;;;;5043471;28;20927;-71
2023/05/14 08:06:49;;;;;;;7.23;6.57;;;18.50;99.90;;;;;;5037207;28;20428;-71
2023/05/14 08:09:16;;;;;;;7.43;6.73;;;18.70;99.90;;;;;;5040231;28;20427;-70
2023/05/14 08:11:42;;;;;;;8.13;6.77;;;18.90;99.90;;;;;;5038861;28;20460;-71
2023/05/14 08:14:10;;;;;;;7.93;7.23;;;19.20;99.90;;;;;;5037029;28;20458;-70
2023/05/14 08:16:37;;;;;;;8.80;7.90;;;19.40;99.90;;;;;;5033118;28;20433;-71
2023/05/14 08:19:04;;;;;;;8.53;6.83;;;19.50;99.90;;;;;;5037429;28;20489;-70
2023/05/14 08:21:31;;;;;;;7.27;6.57;;;19.50;99.90;;;;;;5036378;28;20496;-71
2023/05/14 08:23:58;;;;;;;7.23;6.53;;;19.40;99.90;;;;;;5041174;28;20458;-70
2023/05/14 08:26:24;;;;;;;7.07;6.20;;;19.40;99.90;;;;;;5036486;28;20453;-70
2023/05/14 08:28:52;;;;;;;7.00;6.30;;;19.60;99.90;;;;;;5033459;28;20520;-70
2023/05/14 08:31:20;;;;;;;7.53;6.70;;;19.80;99.90;;;;;;5032784;28;21035;-71
2023/05/14 08:33:47;;;;;;;6.63;6.00;;;20.00;99.90;;;;;;5032232;28;20428;-70
2023/05/14 08:36:13;;;;;;;5.73;5.23;;;20.10;99.90;;;;;;5032957;28;20462;-70
2023/05/14 08:38:41;;;;;;;9.07;6.23;;;20.00;99.90;;;;;;5038330;28;20510;-71
2023/05/14 08:41:08;;;;;;;6.07;5.47;;;20.20;99.90;;;;;;5039956;28;20443;-71
2023/05/14 08:43:44;;;;;;;5.27;4.83;;;20.20;99.90;;;;;;5036440;28;20929;-71
2023/05/14 08:46:14;;;;;;;6.43;5.73;;;20.20;99.90;;;;;;5042540;28;20951;-71
2023/05/14 08:48:45;;;;;;;5.83;5.20;;;20.20;99.90;;;;;;5031704;28;20488;-71
2023/05/14 08:51:12;;;;;;;5.97;5.37;;;20.00;99.90;;;;;;5035350;28;21051;-70
2023/05/14 08:53:39;;;;;;;5.50;5.00;;;19.80;99.90;;;;;;5031734;28;20416;-70
2023/05/14 08:56:08;;;;;;;6.93;5.80;;;19.80;99.90;;;;;;5036140;28;20496;-71
2023/05/14 08:58:34;;;;;;;7.47;5.80;;;20.20;99.90;;;;;;5046817;28;20558;-72
2023/05/14 09:01:01;;;;;;;6.30;5.70;;;20.40;99.90;;;;;;5045506;28;21065;-70
2023/05/14 09:03:29;;;;;;;5.77;5.10;;;20.80;99.90;;;;;;5031521;28;20499;-70
2023/05/14 09:05:57;;;;;;;7.40;5.93;;;21.20;99.90;;;;;;5037232;28;20954;-70
2023/05/14 09:08:24;;;;;;;6.37;5.80;;;21.40;99.90;;;;;;5029883;28;20446;-70
2023/05/14 09:10:51;;;;;;;5.73;5.30;;;21.80;99.90;;;;;;5031276;28;20470;-70
2023/05/14 09:13:17;;;;;;;6.23;5.60;;;21.90;99.90;;;;;;5038703;28;20972;-70
2023/05/14 09:15:45;;;;;;;7.30;6.10;;;21.60;99.90;;;;;;5031624;28;20453;-70
2023/05/14 09:18:12;;;;;;;7.57;6.10;;;21.10;99.90;;;;;;5037198;28;20979;-70
2023/05/14 09:20:39;;;;;;;6.40;5.90;;;20.70;99.90;;;;;;5031366;28;20498;-70
2023/05/14 09:23:07;;;;;;;5.83;5.33;;;20.70;99.90;;;;;;5030675;28;20449;-70
2023/05/14 09:25:33;;;;;;;9.03;5.30;;;20.90;99.90;;;;;;5035139;28;20886;-69
2023/05/14 09:28:05;;;;;;;5.43;5.03;;;20.90;99.90;;;;;;5040054;28;20431;-70
2023/05/14 09:30:33;;;;;;;6.37;5.70;;;20.90;99.90;;;;;;5037523;28;20465;-70
2023/05/14 09:32:59;;;;;;;4.83;4.33;;;20.80;99.90;;;;;;5035300;28;20552;-69
2023/05/14 09:35:26;;;;;;;4.50;4.10;;;20.40;99.90;;;;;;5030674;28;20455;-70
2023/05/14 09:37:54;;;;;;;5.77;5.20;;;20.10;99.90;;;;;;5037851;28;21010;-72
2023/05/14 09:40:23;;;;;;;4.90;4.50;;;19.90;99.90;;;;;;5034026;28;20493;-72
2023/05/14 09:42:50;;;;;;;6.07;5.30;;;19.70;99.90;;;;;;5040693;28;20534;-73
2023/05/14 09:45:17;;;;;;;4.67;4.20;;;19.40;99.90;;;;;;5043533;28;20494;-71
2023/05/14 09:47:44;;;;;;;4.70;4.30;;;19.20;99.90;;;;;;5049590;28;20500;-72
2023/05/14 09:50:11;;;;;;;5.50;5.00;;;19.20;99.90;;;;;;5041430;28;20434;-72
2023/05/14 09:52:38;;;;;;;5.33;4.83;;;19.30;99.90;;;;;;5030375;28;20445;-69
2023/05/14 09:55:06;;;;;;;9.43;5.20;;;19.30;99.90;;;;;;5045502;28;21210;-69
2023/05/14 09:57:34;;;;;;;5.93;5.43;;;19.40;99.90;;;;;;5027134;28;20483;-69
2023/05/14 10:00:01;;;;;;;6.47;5.87;;;19.40;99.90;;;;;;5029760;28;20489;-69
2023/05/14 10:02:39;;;;;;;6.10;5.50;;;19.20;99.90;;;;;;5032156;28;20519;-69
2023/05/14 10:05:07;;;;;;;5.30;4.90;;;19.20;99.90;;;;;;5040296;28;20484;-69
2023/05/14 10:07:40;;;;;;;5.50;5.00;;;19.10;99.90;;;;;;5046984;28;20457;-69
2023/05/14 10:10:13;;;;;;;5.30;4.80;;;19.00;99.90;;;;;;5044228;28;20420;-70
2023/05/14 10:12:43;;;;;;;5.10;4.60;;;19.10;99.90;;;;;;5044900;28;20436;-69
2023/05/14 10:15:16;;;;;;;5.03;4.57;;;19.30;99.90;;;;;;5042995;28;20456;-70
2023/05/14 10:17:47;;;;;;;5.90;4.33;;;19.40;99.90;;;;;;5042638;28;20431;-69
2023/05/14 10:20:15;;;;;;;4.17;3.77;;;19.90;99.90;;;;;;5033550;28;20515;-70
2023/05/14 10:22:42;;;;;;;4.73;4.33;;;20.30;99.90;;;;;;5036778;28;20457;-70
2023/05/14 10:25:10;;;;;;;4.30;4.00;;;20.40;99.90;;;;;;5036007;28;20460;-70
2023/05/14 10:27:37;;;;;;;3.97;3.23;;;20.30;99.90;;;;;;5034075;28;21189;-70
2023/05/14 10:30:11;;;;;;;4.27;3.97;;;20.30;99.90;;;;;;5037881;28;20450;-70
2023/05/14 10:32:40;;;;;;;4.00;3.70;;;20.20;99.90;;;;;;5030253;28;20455;-70
2023/05/14 10:35:17;;;;;;;4.00;3.70;;;20.00;99.90;;;;;;5030428;28;20456;-69
2023/05/14 10:37:44;;;;;;;4.37;3.97;;;19.80;99.90;;;;;;5031937;28;20544;-69
2023/05/14 10:40:12;;;;;;;5.10;4.30;;;19.70;99.90;;;;;;5036952;28;20483;-70
2023/05/14 10:42:42;;;;;;;4.50;4.10;;;19.90;99.90;;;;;;5042419;28;20449;-69
2023/05/14 10:45:12;;;;;;;4.10;3.80;;;20.10;99.90;;;;;;5037596;28;20457;-70
2023/05/14 10:47:41;;;;;;;4.20;3.90;;;20.60;99.90;;;;;;5034406;28;20453;-70
2023/05/14 10:50:10;;;;;;;4.30;3.97;;;21.10;99.90;;;;;;5041893;28;20498;-70
2023/05/14 10:52:37;;;;;;;4.40;3.70;;;21.40;99.90;;;;;;5036440;28;20531;-69
2023/05/14 10:55:06;;;;;;;4.73;4.27;;;21.40;99.90;;;;;;5046400;28;20464;-70
2023/05/14 10:57:36;;;;;;;5.03;4.30;;;21.40;99.90;;;;;;5041886;28;20492;-70
2023/05/14 11:00:06;;;;;;;4.23;3.77;;;21.20;99.90;;;;;;5038182;28;20485;-70
2023/05/14 11:02:36;;;;;;;4.47;4.07;;;21.30;99.90;;;;;;5034098;28;20460;-70
2023/05/14 11:05:04;;;;;;;4.10;3.80;;;21.50;99.90;;;;;;5046419;28;20482;-70
2023/05/14 11:07:33;;;;;;;4.47;3.90;;;21.70;99.90;;;;;;5034076;28;20453;-70
2023/05/14 11:10:02;;;;;;;5.57;4.20;;;21.70;99.90;;;;;;5035713;28;20449;-70
2023/05/14 11:12:29;;;;;;;4.00;3.70;;;21.60;99.90;;;;;;5037224;28;20456;-70
2023/05/14 11:14:58;;;;;;;3.60;3.30;;;21.60;99.90;;;;;;5044851;28;20452;-70
2023/05/14 11:17:26;;;;;;;4.17;3.60;;;21.90;99.90;;;;;;5043638;28;20476;-70
2023/05/14 11:19:54;;;;;;;4.00;3.70;;;22.20;99.90;;;;;;5042618;28;20993;-70
2023/05/14 11:22:20;;;;;;;4.37;3.57;;;22.60;99.90;;;;;;5033553;28;20452;-70
2023/05/14 11:24:47;;;;;;;4.87;4.37;;;23.00;99.90;;;;;;5033411;28;20428;-70
2023/05/14 11:27:14;;;;;;;4.50;4.20;;;23.20;99.90;;;;;;5033021;28;20945;-70
2023/05/14 11:29:44;;;;;;;4.10;3.80;;;23.30;99.90;;;;;;5037251;28;20453;-70
2023/05/14 11:32:11;;;;;;;7.20;4.93;;;23.40;99.90;;;;;;5033301;28;20556;-70
2023/05/14 11:34:38;;;;;;;4.60;3.70;;;23.20;99.90;;;;;;5048208;28;20461;-70
2023/05/14 11:37:06;;;;;;;4.10;3.70;;;23.30;99.90;;;;;;5037203;28;20460;-70
2023/05/14 11:39:34;;;;;;;4.13;3.83;;;23.50;99.90;;;;;;5033589;28;20485;-70
2023/05/14 11:42:03;;;;;;;3.83;3.53;;;23.80;99.90;;;;;;5033268;28;20481;-70
2023/05/14 11:44:30;;;;;;;3.73;3.53;;;23.80;99.90;;;;;;5032976;28;20456;-70
2023/05/14 11:46:57;;;;;;;4.03;3.67;;;23.90;99.90;;;;;;5032821;28;20519;-70
2023/05/14 11:49:24;;;;;;;3.80;3.50;;;23.60;99.90;;;;;;5034623;28;20876;-70
2023/05/14 11:51:51;;;;;;;4.20;3.90;;;23.40;99.90;;;;;;5041439;28;20468;-70
2023/05/14 11:54:19;;;;;;;4.17;3.77;;;23.00;99.90;;;;;;5040354;28;20461;-70
2023/05/14 11:56:50;;;;;;;4.77;4.47;;;22.60;99.90;;;;;;5034520;28;20937;-69
2023/05/14 11:59:18;;;;;;;4.30;4.00;;;22.10;99.90;;;;;;5043379;28;20992;-70
2023/05/14 12:01:45;;;;;;;4.00;3.60;;;22.00;99.90;;;;;;5032530;28;20473;-70
2023/05/14 12:04:12;;;;;;;6.73;3.40;;;21.80;99.90;;;;;;5034039;28;20453;-70
2023/05/14 12:06:39;;;;;;;5.03;3.60;;;21.80;99.90;;;;;;5040829;28;20519;-70
2023/05/14 12:09:06;;;;;;;3.90;3.60;;;21.90;99.90;;;;;;5035371;28;20962;-70
2023/05/14 12:11:36;;;;;;;5.00;4.00;;;22.00;99.90;;;;;;5037545;28;20533;-70
2023/05/14 12:14:11;;;;;;;10.17;4.50;;;22.10;99.90;;;;;;5032394;28;20592;-70
2023/05/14 12:16:40;;;;;;;3.97;3.63;;;22.00;99.90;;;;;;5032455;28;20499;-70
2023/05/14 12:19:09;;;;;;;4.40;4.00;;;21.90;99.90;;;;;;5043311;28;20495;-70
2023/05/14 12:21:36;;;;;;;3.90;3.57;;;21.80;99.90;;;;;;5041473;28;20473;-70
2023/05/14 12:24:03;;;;;;;4.60;4.20;;;22.10;99.90;;;;;;5032228;28;20481;-70
2023/05/14 12:26:34;;;;;;;5.93;3.97;;;22.40;99.90;;;;;;5036225;28;20493;-70
2023/05/14 12:29:02;;;;;;;3.40;3.20;;;22.60;99.90;;;;;;5038000;28;20457;-70
2023/05/14 12:31:29;;;;;;;4.57;4.20;;;22.50;99.90;;;;;;5031831;28;20516;-70
2023/05/14 12:33:56;;;;;;;3.87;3.63;;;22.40;99.90;;;;;;5039214;28;20457;-70
2023/05/14 12:36:23;;;;;;;4.30;3.90;;;22.60;99.90;;;;;;5031639;28;21104;-70
2023/05/14 12:38:50;;;;;;;4.10;3.80;;;22.90;99.90;;;;;;5031768;28;20458;-70
2023/05/14 12:41:17;;;;;;;3.77;3.47;;;23.10;99.90;;;;;;5034281;28;20512;-70